sensor_id;sensor_type;location;lat;lon;timestamp;pressure;altitude;pressure_sealevel;temperature;humidity
60101;BME280;45978;53.646;55.930;2022-08-25T00:00:22;100756.97;;;17.45;68.18
60101;BME280;45978;53.646;55.930;2022-08-25T00:01:27;100753.44;;;17.44;68.26
60101;BME280;45978;53.646;55.930;2022-08-25T00:02:28;100751.97;;;17.37;68.13
60101;BME280;45978;53.646;55.930;2022-08-25T00:03:29;100753.97;;;17.32;68.18
60101;BME280;45978;53.646;55.930;2022-08-25T00:04:31;100762.84;;;17.31;68.15
60101;BME280;45978;53.646;55.930;2022-08-25T00:05:32;100758.66;;;17.25;68.59
60101;BME280;45978;53.646;55.930;2022-08-25T00:06:34;100757.81;;;17.25;68.89
60101;BME280;45978;53.646;55.930;2022-08-25T00:07:35;100753.34;;;17.25;68.39
60101;BME280;45978;53.646;55.930;2022-08-25T00:08:36;100742.19;;;17.17;68.62
60101;BME280;45978;53.646;55.930;2022-08-25T00:09:41;100758.06;;;17.18;69.04
60101;BME280;45978;53.646;55.930;2022-08-25T00:10:42;100760.72;;;17.18;69.30
60101;BME280;45978;53.646;55.930;2022-08-25T00:11:45;100766.88;;;17.19;68.97
60101;BME280;45978;53.646;55.930;2022-08-25T00:12:48;100758.84;;;17.20;69.14
60101;BME280;45978;53.646;55.930;2022-08-25T00:13:53;100763.16;;;17.23;69.09
60101;BME280;45978;53.646;55.930;2022-08-25T00:14:54;100762.25;;;17.24;69.02
60101;BME280;45978;53.646;55.930;2022-08-25T00:15:55;100761.25;;;17.27;69.21
60101;BME280;45978;53.646;55.930;2022-08-25T00:16:57;100762.69;;;17.35;68.80
60101;BME280;45978;53.646;55.930;2022-08-25T00:17:59;100757.28;;;17.37;68.66
60101;BME280;45978;53.646;55.930;2022-08-25T00:19:06;100766.78;;;17.42;68.69
60101;BME280;45978;53.646;55.930;2022-08-25T00:20:08;100747.72;;;17.33;68.39
60101;BME280;45978;53.646;55.930;2022-08-25T00:21:11;100764.41;;;17.36;68.60
60101;BME280;45978;53.646;55.930;2022-08-25T00:22:12;100764.94;;;17.45;68.30
60101;BME280;45978;53.646;55.930;2022-08-25T00:23:14;100758.81;;;17.42;68.25
60101;BME280;45978;53.646;55.930;2022-08-25T00:24:17;100766.66;;;17.46;68.10
60101;BME280;45978;53.646;55.930;2022-08-25T00:25:19;100756.22;;;17.41;68.53
60101;BME280;45978;53.646;55.930;2022-08-25T00:26:20;100751.25;;;17.33;68.43
60101;BME280;45978;53.646;55.930;2022-08-25T00:27:22;100766.19;;;17.36;68.55
60101;BME280;45978;53.646;55.930;2022-08-25T00:28:23;100765.44;;;17.32;68.63
60101;BME280;45978;53.646;55.930;2022-08-25T00:29:25;100760.47;;;17.25;68.90
60101;BME280;45978;53.646;55.930;2022-08-25T00:30:26;100761.50;;;17.20;69.16
60101;BME280;45978;53.646;55.930;2022-08-25T00:31:28;100763.44;;;17.17;69.33
60101;BME280;45978;53.646;55.930;2022-08-25T00:32:29;100764.44;;;17.14;69.16
60101;BME280;45978;53.646;55.930;2022-08-25T00:33:30;100769.00;;;17.11;69.60
60101;BME280;45978;53.646;55.930;2022-08-25T00:34:35;100763.00;;;17.06;69.96
60101;BME280;45978;53.646;55.930;2022-08-25T00:35:37;100763.19;;;17.01;69.83
60101;BME280;45978;53.646;55.930;2022-08-25T00:36:38;100760.59;;;16.99;69.90
60101;BME280;45978;53.646;55.930;2022-08-25T00:37:40;100756.34;;;16.95;70.23
60101;BME280;45978;53.646;55.930;2022-08-25T00:38:46;100763.38;;;16.96;70.19
60101;BME280;45978;53.646;55.930;2022-08-25T00:39:47;100760.97;;;16.90;70.50
60101;BME280;45978;53.646;55.930;2022-08-25T00:40:48;100766.16;;;16.93;70.32
60101;BME280;45978;53.646;55.930;2022-08-25T00:42:08;100766.16;;;16.93;70.48
60101;BME280;45978;53.646;55.930;2022-08-25T00:43:09;100768.00;;;16.91;70.73
60101;BME280;45978;53.646;55.930;2022-08-25T00:44:12;100756.72;;;16.86;70.12
60101;BME280;45978;53.646;55.930;2022-08-25T00:45:14;100759.38;;;16.86;70.92
60101;BME280;45978;53.646;55.930;2022-08-25T00:46:19;100765.69;;;16.82;70.56
60101;BME280;45978;53.646;55.930;2022-08-25T00:47:20;100763.94;;;16.82;71.14
60101;BME280;45978;53.646;55.930;2022-08-25T00:48:22;100769.31;;;16.79;71.27
60101;BME280;45978;53.646;55.930;2022-08-25T00:49:40;100767.75;;;16.74;71.27
60101;BME280;45978;53.646;55.930;2022-08-25T00:50:42;100769.50;;;16.75;71.23
60101;BME280;45978;53.646;55.930;2022-08-25T00:51:50;100769.56;;;16.73;71.04
60101;BME280;45978;53.646;55.930;2022-08-25T00:52:53;100766.81;;;16.76;71.30
60101;BME280;45978;53.646;55.930;2022-08-25T00:53:55;100762.47;;;16.74;71.59
60101;BME280;45978;53.646;55.930;2022-08-25T00:55:10;100763.41;;;16.73;71.42
60101;BME280;45978;53.646;55.930;2022-08-25T00:56:13;100765.25;;;16.71;71.52
60101;BME280;45978;53.646;55.930;2022-08-25T00:57:17;100761.78;;;16.69;71.53
60101;BME280;45978;53.646;55.930;2022-08-25T00:58:22;100774.25;;;16.67;72.14
60101;BME280;45978;53.646;55.930;2022-08-25T00:59:27;100765.59;;;16.61;71.76
60101;BME280;45978;53.646;55.930;2022-08-25T01:00:32;100767.34;;;16.62;71.85
60101;BME280;45978;53.646;55.930;2022-08-25T01:01:33;100770.03;;;16.61;72.15
60101;BME280;45978;53.646;55.930;2022-08-25T01:02:35;100767.44;;;16.59;72.35
60101;BME280;45978;53.646;55.930;2022-08-25T01:03:36;100765.69;;;16.58;72.49
60101;BME280;45978;53.646;55.930;2022-08-25T01:04:38;100755.34;;;16.52;72.57
60101;BME280;45978;53.646;55.930;2022-08-25T01:05:40;100766.69;;;16.56;72.31
60101;BME280;45978;53.646;55.930;2022-08-25T01:06:43;100764.91;;;16.56;72.82
60101;BME280;45978;53.646;55.930;2022-08-25T01:07:44;100765.84;;;16.55;72.72
60101;BME280;45978;53.646;55.930;2022-08-25T01:08:46;100766.69;;;16.56;72.74
60101;BME280;45978;53.646;55.930;2022-08-25T01:09:49;100771.00;;;16.58;72.87
60101;BME280;45978;53.646;55.930;2022-08-25T01:10:53;100767.53;;;16.56;72.71
60101;BME280;45978;53.646;55.930;2022-08-25T01:11:57;100770.91;;;16.61;72.66
60101;BME280;45978;53.646;55.930;2022-08-25T01:13:37;100777.19;;;16.59;73.01
60101;BME280;45978;53.646;55.930;2022-08-25T01:14:39;100772.69;;;16.61;72.84
60101;BME280;45978;53.646;55.930;2022-08-25T01:15:40;100775.44;;;16.58;72.80
60101;BME280;45978;53.646;55.930;2022-08-25T01:16:42;100769.25;;;16.59;72.52
60101;BME280;45978;53.646;55.930;2022-08-25T01:17:50;100773.66;;;16.58;72.66
60101;BME280;45978;53.646;55.930;2022-08-25T01:18:57;100772.03;;;16.54;72.81
60101;BME280;45978;53.646;55.930;2022-08-25T01:19:58;100765.13;;;16.50;72.60
60101;BME280;45978;53.646;55.930;2022-08-25T01:21:00;100765.88;;;16.54;72.84
60101;BME280;45978;53.646;55.930;2022-08-25T01:22:01;100770.19;;;16.56;72.98
60101;BME280;45978;53.646;55.930;2022-08-25T01:23:02;100777.25;;;16.57;72.98
60101;BME280;45978;53.646;55.930;2022-08-25T01:24:03;100769.34;;;16.56;73.11
60101;BME280;45978;53.646;55.930;2022-08-25T01:25:42;100782.38;;;16.62;73.26
60101;BME280;45978;53.646;55.930;2022-08-25T01:26:46;100777.72;;;16.69;72.59
60101;BME280;45978;53.646;55.930;2022-08-25T01:27:47;100780.34;;;16.69;72.56
60101;BME280;45978;53.646;55.930;2022-08-25T01:28:50;100782.88;;;16.72;72.95
60101;BME280;45978;53.646;55.930;2022-08-25T01:30:10;100778.47;;;16.72;72.73
60101;BME280;45978;53.646;55.930;2022-08-25T01:31:11;100774.91;;;16.72;72.83
60101;BME280;45978;53.646;55.930;2022-08-25T01:32:13;100781.81;;;16.76;72.84
60101;BME280;45978;53.646;55.930;2022-08-25T01:33:15;100781.66;;;16.80;72.85
60101;BME280;45978;53.646;55.930;2022-08-25T01:34:18;100778.84;;;16.85;72.54
60101;BME280;45978;53.646;55.930;2022-08-25T01:35:19;100778.84;;;16.85;72.52
60101;BME280;45978;53.646;55.930;2022-08-25T01:36:21;100784.78;;;16.92;72.22
60101;BME280;45978;53.646;55.930;2022-08-25T01:37:22;100782.06;;;16.93;71.93
60101;BME280;45978;53.646;55.930;2022-08-25T01:38:23;100775.06;;;16.92;71.97
60101;BME280;45978;53.646;55.930;2022-08-25T01:39:26;100775.91;;;16.93;72.11
60101;BME280;45978;53.646;55.930;2022-08-25T01:40:29;100776.75;;;16.93;71.71
60101;BME280;45978;53.646;55.930;2022-08-25T01:41:35;100784.56;;;16.98;72.27
60101;BME280;45978;53.646;55.930;2022-08-25T01:44:03;100781.75;;;17.01;71.70
60101;BME280;45978;53.646;55.930;2022-08-25T01:45:07;100786.97;;;17.04;71.87
60101;BME280;45978;53.646;55.930;2022-08-25T01:46:10;100783.38;;;17.05;71.73
60101;BME280;45978;53.646;55.930;2022-08-25T01:47:11;100778.06;;;17.05;71.76
60101;BME280;45978;53.646;55.930;2022-08-25T01:48:13;100789.31;;;17.12;71.35
60101;BME280;45978;53.646;55.930;2022-08-25T01:49:15;100787.31;;;17.17;71.61
60101;BME280;45978;53.646;55.930;2022-08-25T01:50:16;100772.69;;;17.29;71.09
60101;BME280;45978;53.646;55.930;2022-08-25T01:51:20;100781.22;;;17.78;70.11
60101;BME280;45978;53.646;55.930;2022-08-25T01:52:28;100777.16;;;18.31;68.53
60101;BME280;45978;53.646;55.930;2022-08-25T01:53:30;100772.88;;;18.85;66.64
60101;BME280;45978;53.646;55.930;2022-08-25T01:54:32;100780.44;;;19.31;64.98
60101;BME280;45978;53.646;55.930;2022-08-25T01:55:34;100777.69;;;19.67;63.63
60101;BME280;45978;53.646;55.930;2022-08-25T01:56:51;100781.44;;;20.15;62.05
60101;BME280;45978;53.646;55.930;2022-08-25T01:57:52;100775.25;;;20.48;60.86
60101;BME280;45978;53.646;55.930;2022-08-25T01:58:53;100781.56;;;20.79;59.66
60101;BME280;45978;53.646;55.930;2022-08-25T01:59:54;100777.94;;;21.12;58.77
60101;BME280;45978;53.646;55.930;2022-08-25T02:00:57;100769.06;;;21.42;57.59
60101;BME280;45978;53.646;55.930;2022-08-25T02:01:59;100780.47;;;21.75;56.48
60101;BME280;45978;53.646;55.930;2022-08-25T02:03:00;100768.38;;;21.99;55.57
60101;BME280;45978;53.646;55.930;2022-08-25T02:04:01;100765.13;;;22.22;54.86
60101;BME280;45978;53.646;55.930;2022-08-25T02:05:02;100764.50;;;22.47;53.96
60101;BME280;45978;53.646;55.930;2022-08-25T02:06:05;100772.78;;;22.71;53.21
60101;BME280;45978;53.646;55.930;2022-08-25T02:07:07;100772.81;;;22.99;52.55
60101;BME280;45978;53.646;55.930;2022-08-25T02:08:08;100774.09;;;23.20;51.87
60101;BME280;45978;53.646;55.930;2022-08-25T02:09:13;100777.50;;;23.49;50.93
60101;BME280;45978;53.646;55.930;2022-08-25T02:10:14;100777.56;;;23.75;50.38
60101;BME280;45978;53.646;55.930;2022-08-25T02:11:15;100768.06;;;23.97;49.89
60101;BME280;45978;53.646;55.930;2022-08-25T02:12:16;100766.97;;;24.25;49.13
60101;BME280;45978;53.646;55.930;2022-08-25T02:13:18;100770.78;;;24.46;48.27
60101;BME280;45978;53.646;55.930;2022-08-25T02:14:20;100765.41;;;24.72;47.99
60101;BME280;45978;53.646;55.930;2022-08-25T02:15:22;100782.91;;;25.02;47.10
60101;BME280;45978;53.646;55.930;2022-08-25T02:16:29;100776.19;;;25.20;46.54
60101;BME280;45978;53.646;55.930;2022-08-25T02:17:31;100771.66;;;25.45;46.23
60101;BME280;45978;53.646;55.930;2022-08-25T02:18:32;100769.88;;;25.57;45.80
60101;BME280;45978;53.646;55.930;2022-08-25T02:19:33;100764.41;;;25.81;45.02
60101;BME280;45978;53.646;55.930;2022-08-25T02:20:34;100759.81;;;25.94;44.70
60101;BME280;45978;53.646;55.930;2022-08-25T02:21:36;100765.84;;;26.20;43.88
60101;BME280;45978;53.646;55.930;2022-08-25T02:22:37;100764.75;;;26.34;43.57
60101;BME280;45978;53.646;55.930;2022-08-25T02:23:39;100766.69;;;26.43;43.61
60101;BME280;45978;53.646;55.930;2022-08-25T02:24:43;100774.66;;;26.67;42.96
60101;BME280;45978;53.646;55.930;2022-08-25T02:25:44;100768.41;;;26.90;42.30
60101;BME280;45978;53.646;55.930;2022-08-25T02:26:45;100765.50;;;27.14;42.00
60101;BME280;45978;53.646;55.930;2022-08-25T02:27:46;100768.00;;;27.38;41.65
60101;BME280;45978;53.646;55.930;2022-08-25T02:28:49;100766.22;;;27.48;41.05
60101;BME280;45978;53.646;55.930;2022-08-25T02:29:50;100774.88;;;27.84;40.89
60101;BME280;45978;53.646;55.930;2022-08-25T02:30:52;100774.50;;;28.10;40.06
60101;BME280;45978;53.646;55.930;2022-08-25T02:31:53;100778.84;;;28.32;39.48
60101;BME280;45978;53.646;55.930;2022-08-25T02:32:54;100782.38;;;28.53;39.08
60101;BME280;45978;53.646;55.930;2022-08-25T02:33:56;100772.03;;;28.68;39.31
60101;BME280;45978;53.646;55.930;2022-08-25T02:34:57;100776.75;;;28.86;38.81
60101;BME280;45978;53.646;55.930;2022-08-25T02:35:59;100774.31;;;28.63;38.84
60101;BME280;45978;53.646;55.930;2022-08-25T02:37:00;100779.63;;;28.94;38.30
60101;BME280;45978;53.646;55.930;2022-08-25T02:38:02;100780.78;;;29.01;38.36
60101;BME280;45978;53.646;55.930;2022-08-25T02:39:06;100773.78;;;28.89;38.42
60101;BME280;45978;53.646;55.930;2022-08-25T02:40:08;100779.63;;;29.03;38.30
60101;BME280;45978;53.646;55.930;2022-08-25T02:41:13;100781.78;;;29.10;38.00
60101;BME280;45978;53.646;55.930;2022-08-25T02:42:15;100772.13;;;29.17;37.94
60101;BME280;45978;53.646;55.930;2022-08-25T02:43:17;100775.84;;;29.35;37.53
60101;BME280;45978;53.646;55.930;2022-08-25T02:44:18;100774.28;;;29.72;37.15
60101;BME280;45978;53.646;55.930;2022-08-25T02:45:20;100770.66;;;30.00;36.66
60101;BME280;45978;53.646;55.930;2022-08-25T02:46:21;100777.50;;;30.05;36.51
60101;BME280;45978;53.646;55.930;2022-08-25T02:47:23;100774.22;;;30.01;36.08
60101;BME280;45978;53.646;55.930;2022-08-25T02:48:24;100765.34;;;30.09;36.14
60101;BME280;45978;53.646;55.930;2022-08-25T02:49:27;100770.00;;;30.36;35.62
60101;BME280;45978;53.646;55.930;2022-08-25T02:50:28;100767.78;;;30.49;35.44
60101;BME280;45978;53.646;55.930;2022-08-25T02:51:29;100772.81;;;30.72;35.33
60101;BME280;45978;53.646;55.930;2022-08-25T02:52:31;100774.03;;;30.59;35.36
60101;BME280;45978;53.646;55.930;2022-08-25T02:53:33;100779.53;;;30.68;35.21
60101;BME280;45978;53.646;55.930;2022-08-25T02:54:35;100776.81;;;30.68;35.24
60101;BME280;45978;53.646;55.930;2022-08-25T02:55:42;100773.25;;;30.30;35.68
60101;BME280;45978;53.646;55.930;2022-08-25T02:56:43;100768.31;;;30.15;35.82
60101;BME280;45978;53.646;55.930;2022-08-25T02:57:44;100768.09;;;30.46;35.47
60101;BME280;45978;53.646;55.930;2022-08-25T02:58:46;100774.63;;;30.81;34.76
60101;BME280;45978;53.646;55.930;2022-08-25T02:59:47;100770.09;;;31.17;34.04
60101;BME280;45978;53.646;55.930;2022-08-25T03:00:49;100769.94;;;31.55;33.76
60101;BME280;45978;53.646;55.930;2022-08-25T03:01:50;100777.09;;;31.56;33.85
60101;BME280;45978;53.646;55.930;2022-08-25T03:02:51;100765.06;;;31.85;33.33
60101;BME280;45978;53.646;55.930;2022-08-25T03:03:52;100773.88;;;32.05;32.95
60101;BME280;45978;53.646;55.930;2022-08-25T03:04:53;100771.50;;;32.36;32.63
60101;BME280;45978;53.646;55.930;2022-08-25T03:05:55;100777.91;;;32.61;32.33
60101;BME280;45978;53.646;55.930;2022-08-25T03:06:57;100773.25;;;32.88;32.04
60101;BME280;45978;53.646;55.930;2022-08-25T03:07:59;100775.16;;;33.04;31.25
60101;BME280;45978;53.646;55.930;2022-08-25T03:09:00;100782.16;;;33.31;31.25
60101;BME280;45978;53.646;55.930;2022-08-25T03:10:10;100775.47;;;33.09;30.60
60101;BME280;45978;53.646;55.930;2022-08-25T03:11:12;100780.31;;;33.40;30.92
60101;BME280;45978;53.646;55.930;2022-08-25T03:12:14;100778.78;;;33.53;30.23
60101;BME280;45978;53.646;55.930;2022-08-25T03:13:15;100777.06;;;33.52;30.21
60101;BME280;45978;53.646;55.930;2022-08-25T03:14:16;100777.09;;;33.61;30.23
60101;BME280;45978;53.646;55.930;2022-08-25T03:15:18;100772.66;;;33.76;29.87
60101;BME280;45978;53.646;55.930;2022-08-25T03:16:19;100777.25;;;33.59;30.03
60101;BME280;45978;53.646;55.930;2022-08-25T03:17:20;100777.25;;;33.43;30.53
60101;BME280;45978;53.646;55.930;2022-08-25T03:18:21;100765.00;;;33.47;30.34
60101;BME280;45978;53.646;55.930;2022-08-25T03:19:22;100783.72;;;33.66;30.57
60101;BME280;45978;53.646;55.930;2022-08-25T03:20:24;100777.59;;;33.56;30.77
60101;BME280;45978;53.646;55.930;2022-08-25T03:21:27;100775.41;;;33.68;29.83
60101;BME280;45978;53.646;55.930;2022-08-25T03:22:28;100775.38;;;33.60;30.11
60101;BME280;45978;53.646;55.930;2022-08-25T03:23:29;100776.19;;;33.11;31.17
60101;BME280;45978;53.646;55.930;2022-08-25T03:24:31;100783.81;;;32.99;30.50
60101;BME280;45978;53.646;55.930;2022-08-25T03:25:32;100779.44;;;33.31;30.19
60101;BME280;45978;53.646;55.930;2022-08-25T03:26:52;100778.78;;;33.45;29.65
60101;BME280;45978;53.646;55.930;2022-08-25T03:27:53;100778.44;;;33.81;29.54
60101;BME280;45978;53.646;55.930;2022-08-25T03:28:55;100774.03;;;33.64;29.79
60101;BME280;45978;53.646;55.930;2022-08-25T03:29:56;100784.94;;;33.72;29.41
60101;BME280;45978;53.646;55.930;2022-08-25T03:30:59;100769.72;;;34.10;29.31
60101;BME280;45978;53.646;55.930;2022-08-25T03:32:00;100771.59;;;34.18;28.87
60101;BME280;45978;53.646;55.930;2022-08-25T03:33:02;100773.66;;;34.16;28.95
60101;BME280;45978;53.646;55.930;2022-08-25T03:34:03;100766.06;;;34.35;28.52
60101;BME280;45978;53.646;55.930;2022-08-25T03:35:05;100767.63;;;34.29;28.65
60101;BME280;45978;53.646;55.930;2022-08-25T03:36:07;100770.53;;;34.27;28.28
60101;BME280;45978;53.646;55.930;2022-08-25T03:37:08;100767.28;;;34.32;28.73
60101;BME280;45978;53.646;55.930;2022-08-25T03:38:10;100765.09;;;34.59;28.26
60101;BME280;45978;53.646;55.930;2022-08-25T03:39:12;100768.03;;;34.49;28.41
60101;BME280;45978;53.646;55.930;2022-08-25T03:40:15;100769.84;;;34.34;27.91
60101;BME280;45978;53.646;55.930;2022-08-25T03:41:26;100764.22;;;34.27;28.12
60101;BME280;45978;53.646;55.930;2022-08-25T03:42:32;100759.31;;;34.14;28.59
60101;BME280;45978;53.646;55.930;2022-08-25T03:43:33;100757.09;;;34.09;28.55
60101;BME280;45978;53.646;55.930;2022-08-25T03:44:36;100770.91;;;34.00;28.13
60101;BME280;45978;53.646;55.930;2022-08-25T03:45:42;100763.38;;;34.26;28.03
60101;BME280;45978;53.646;55.930;2022-08-25T03:46:46;100765.13;;;34.03;28.16
60101;BME280;45978;53.646;55.930;2022-08-25T03:47:49;100769.25;;;33.82;28.84
60101;BME280;45978;53.646;55.930;2022-08-25T03:48:51;100770.44;;;33.39;29.49
60101;BME280;45978;53.646;55.930;2022-08-25T03:49:52;100760.38;;;33.23;29.25
60101;BME280;45978;53.646;55.930;2022-08-25T03:50:53;100773.50;;;33.27;29.22
60101;BME280;45978;53.646;55.930;2022-08-25T03:51:54;100772.66;;;33.51;29.33
60101;BME280;45978;53.646;55.930;2022-08-25T03:52:56;100769.75;;;33.86;28.54
60101;BME280;45978;53.646;55.930;2022-08-25T03:53:58;100768.53;;;34.05;28.51
60101;BME280;45978;53.646;55.930;2022-08-25T03:54:59;100773.50;;;33.93;28.47
60101;BME280;45978;53.646;55.930;2022-08-25T03:56:01;100768.59;;;33.64;28.71
60101;BME280;45978;53.646;55.930;2022-08-25T03:57:03;100762.06;;;33.98;28.50
60101;BME280;45978;53.646;55.930;2022-08-25T03:58:05;100768.63;;;34.36;28.11
60101;BME280;45978;53.646;55.930;2022-08-25T03:59:06;100763.28;;;34.51;27.73
60101;BME280;45978;53.646;55.930;2022-08-25T04:00:11;100758.28;;;34.71;27.95
60101;BME280;45978;53.646;55.930;2022-08-25T04:01:13;100765.28;;;34.18;28.36
60101;BME280;45978;53.646;55.930;2022-08-25T04:02:14;100757.91;;;34.26;28.06
60101;BME280;45978;53.646;55.930;2022-08-25T04:03:17;100754.22;;;34.50;27.89
60101;BME280;45978;53.646;55.930;2022-08-25T04:04:18;100752.59;;;34.81;27.62
60101;BME280;45978;53.646;55.930;2022-08-25T04:05:20;100755.38;;;34.96;27.49
60101;BME280;45978;53.646;55.930;2022-08-25T04:06:22;100757.63;;;35.15;27.21
60101;BME280;45978;53.646;55.930;2022-08-25T04:07:23;100765.84;;;34.84;27.21
60101;BME280;45978;53.646;55.930;2022-08-25T04:08:24;100755.75;;;34.93;27.54
60101;BME280;45978;53.646;55.930;2022-08-25T04:09:25;100766.38;;;35.10;27.38
60101;BME280;45978;53.646;55.930;2022-08-25T04:10:27;100755.34;;;35.27;26.61
60101;BME280;45978;53.646;55.930;2022-08-25T04:11:28;100758.41;;;35.47;26.76
60101;BME280;45978;53.646;55.930;2022-08-25T04:12:30;100767.84;;;35.44;26.90
60101;BME280;45978;53.646;55.930;2022-08-25T04:13:31;100757.31;;;35.18;27.06
60101;BME280;45978;53.646;55.930;2022-08-25T04:14:33;100753.94;;;35.31;27.19
60101;BME280;45978;53.646;55.930;2022-08-25T04:15:35;100758.94;;;35.65;26.66
60101;BME280;45978;53.646;55.930;2022-08-25T04:16:36;100746.94;;;35.89;26.54
60101;BME280;45978;53.646;55.930;2022-08-25T04:17:38;100759.47;;;36.14;25.93
60101;BME280;45978;53.646;55.930;2022-08-25T04:18:40;100758.16;;;36.39;25.75
60101;BME280;45978;53.646;55.930;2022-08-25T04:19:43;100755.97;;;36.50;25.57
60101;BME280;45978;53.646;55.930;2022-08-25T04:20:45;100748.13;;;36.76;24.91
60101;BME280;45978;53.646;55.930;2022-08-25T04:21:47;100758.88;;;37.14;25.00
60101;BME280;45978;53.646;55.930;2022-08-25T04:22:49;100748.00;;;37.21;24.95
60101;BME280;45978;53.646;55.930;2022-08-25T04:23:52;100758.53;;;37.24;24.86
60101;BME280;45978;53.646;55.930;2022-08-25T04:24:54;100754.13;;;37.23;24.54
60101;BME280;45978;53.646;55.930;2022-08-25T04:25:55;100755.63;;;37.11;24.70
60101;BME280;45978;53.646;55.930;2022-08-25T04:26:56;100750.63;;;36.93;24.64
60101;BME280;45978;53.646;55.930;2022-08-25T04:27:57;100753.16;;;36.94;25.26
60101;BME280;45978;53.646;55.930;2022-08-25T04:29:00;100758.16;;;36.69;25.00
60101;BME280;45978;53.646;55.930;2022-08-25T04:30:04;100763.94;;;36.30;25.75
60101;BME280;45978;53.646;55.930;2022-08-25T04:31:09;100749.88;;;36.33;25.46
60101;BME280;45978;53.646;55.930;2022-08-25T04:32:11;100763.06;;;36.14;25.64
60101;BME280;45978;53.646;55.930;2022-08-25T04:33:13;100761.00;;;36.16;25.85
60101;BME280;45978;53.646;55.930;2022-08-25T04:34:18;100756.31;;;36.25;25.61
60101;BME280;45978;53.646;55.930;2022-08-25T04:35:20;100754.53;;;36.17;25.44
60101;BME280;45978;53.646;55.930;2022-08-25T04:36:22;100755.72;;;36.30;25.81
60101;BME280;45978;53.646;55.930;2022-08-25T04:37:24;100753.06;;;36.51;25.45
60101;BME280;45978;53.646;55.930;2022-08-25T04:38:25;100750.69;;;36.78;24.97
60101;BME280;45978;53.646;55.930;2022-08-25T04:39:28;100757.81;;;36.94;25.18
60101;BME280;45978;53.646;55.930;2022-08-25T04:40:29;100756.50;;;36.90;25.00
60101;BME280;45978;53.646;55.930;2022-08-25T04:41:31;100756.97;;;36.27;25.24
60101;BME280;45978;53.646;55.930;2022-08-25T04:42:32;100751.00;;;36.08;25.78
60101;BME280;45978;53.646;55.930;2022-08-25T04:43:36;100749.28;;;35.93;25.88
60101;BME280;45978;53.646;55.930;2022-08-25T04:44:38;100742.97;;;35.77;25.90
60101;BME280;45978;53.646;55.930;2022-08-25T04:45:39;100747.78;;;36.05;26.10
60101;BME280;45978;53.646;55.930;2022-08-25T04:46:40;100751.59;;;36.19;25.29
60101;BME280;45978;53.646;55.930;2022-08-25T04:47:42;100747.41;;;36.53;25.28
60101;BME280;45978;53.646;55.930;2022-08-25T04:48:43;100748.84;;;35.89;26.04
60101;BME280;45978;53.646;55.930;2022-08-25T04:49:44;100743.09;;;35.99;25.75
60101;BME280;45978;53.646;55.930;2022-08-25T04:50:45;100746.94;;;36.49;25.43
60101;BME280;45978;53.646;55.930;2022-08-25T04:51:46;100749.78;;;36.41;25.26
60101;BME280;45978;53.646;55.930;2022-08-25T04:52:47;100750.28;;;36.81;24.84
60101;BME280;45978;53.646;55.930;2022-08-25T04:53:49;100743.03;;;36.73;24.99
60101;BME280;45978;53.646;55.930;2022-08-25T04:54:51;100747.16;;;36.84;24.54
60101;BME280;45978;53.646;55.930;2022-08-25T04:55:52;100740.84;;;37.05;24.59
60101;BME280;45978;53.646;55.930;2022-08-25T04:56:53;100746.75;;;36.87;24.56
60101;BME280;45978;53.646;55.930;2022-08-25T04:57:54;100743.13;;;36.80;24.82
60101;BME280;45978;53.646;55.930;2022-08-25T04:58:55;100746.03;;;37.15;24.03
60101;BME280;45978;53.646;55.930;2022-08-25T04:59:57;100744.38;;;37.42;23.65
60101;BME280;45978;53.646;55.930;2022-08-25T05:01:18;100751.94;;;37.40;23.79
60101;BME280;45978;53.646;55.930;2022-08-25T05:02:21;100759.53;;;37.16;23.91
60101;BME280;45978;53.646;55.930;2022-08-25T05:03:22;100742.06;;;36.81;24.56
60101;BME280;45978;53.646;55.930;2022-08-25T05:04:24;100752.47;;;36.71;24.48
60101;BME280;45978;53.646;55.930;2022-08-25T05:05:25;100744.34;;;36.62;24.25
60101;BME280;45978;53.646;55.930;2022-08-25T05:06:27;100743.41;;;36.55;24.39
60101;BME280;45978;53.646;55.930;2022-08-25T05:07:31;100731.16;;;36.51;24.65
60101;BME280;45978;53.646;55.930;2022-08-25T05:08:34;100744.03;;;37.09;24.25
60101;BME280;45978;53.646;55.930;2022-08-25T05:09:35;100745.72;;;37.53;24.16
60101;BME280;45978;53.646;55.930;2022-08-25T05:10:41;100746.84;;;37.87;23.66
60101;BME280;45978;53.646;55.930;2022-08-25T05:11:43;100742.41;;;38.14;23.38
60101;BME280;45978;53.646;55.930;2022-08-25T05:12:48;100747.31;;;37.40;23.95
60101;BME280;45978;53.646;55.930;2022-08-25T05:13:52;100740.13;;;36.96;24.45
60101;BME280;45978;53.646;55.930;2022-08-25T05:14:54;100743.41;;;36.55;24.64
60101;BME280;45978;53.646;55.930;2022-08-25T05:15:58;100737.84;;;37.00;24.64
60101;BME280;45978;53.646;55.930;2022-08-25T05:16:59;100741.56;;;37.35;24.06
60101;BME280;45978;53.646;55.930;2022-08-25T05:18:01;100737.59;;;37.38;24.10
60101;BME280;45978;53.646;55.930;2022-08-25T05:19:03;100746.75;;;37.52;23.58
60101;BME280;45978;53.646;55.930;2022-08-25T05:20:04;100739.88;;;37.13;24.00
60101;BME280;45978;53.646;55.930;2022-08-25T05:21:12;100740.06;;;36.90;24.12
60101;BME280;45978;53.646;55.930;2022-08-25T05:22:14;100747.06;;;37.35;23.90
60101;BME280;45978;53.646;55.930;2022-08-25T05:23:15;100733.59;;;37.62;23.68
60101;BME280;45978;53.646;55.930;2022-08-25T05:24:17;100737.66;;;37.66;23.40
60101;BME280;45978;53.646;55.930;2022-08-25T05:25:18;100734.94;;;37.73;23.11